Time;durP1;ratioP1;P1;durP2;ratioP2;P2;SDS_P1;SDS_P2;PMS_P1;PMS_P2;Temp;Humidity;BMP_temperature;BMP_pressure;BME280_temperature;BME280_humidity;BME280_pressure;Samples;Min_cycle;Max_cycle;Signal;HPM_P1;HPM_P2
2021/06/30 00:01:59;;;;;;;23.83;21.87;;;;;;;;;;5072078;28;20481;-91
2021/06/30 00:04:25;;;;;;;23.70;21.73;;;;;;;;;;5071418;28;20385;-91
2021/06/30 00:06:51;;;;;;;25.65;23.45;;;;;;;;;;5072649;28;20494;-89
2021/06/30 00:09:21;;;;;;;25.38;23.02;;;;;;;;;;5078762;28;20382;-88
2021/06/30 00:11:48;;;;;;;24.55;22.38;;;;;;;;;;5082451;28;20448;-90
2021/06/30 00:14:14;;;;;;;26.70;24.30;;;;;;;;;;5080554;28;20709;-91
2021/06/30 00:16:41;;;;;;;25.85;23.58;;;;;;;;;;5080446;28;20731;-89
2021/06/30 00:19:10;;;;;;;26.27;24.05;;;;;;;;;;5082629;28;20403;-89
2021/06/30 00:21:37;;;;;;;25.38;23.17;;;;;;;;;;5091306;28;20388;-89
2021/06/30 00:24:03;;;;;;;26.73;24.45;;;;;;;;;;5094311;28;20396;-90
2021/06/30 00:26:29;;;;;;;27.60;25.13;;;;;;;;;;5092970;28;20450;-92
2021/06/30 00:28:55;;;;;;;27.63;25.23;;;;;;;;;;5095000;28;20869;-90
2021/06/30 00:31:22;;;;;;;28.02;25.42;;;;;;;;;;5094466;28;20364;-89
2021/06/30 00:33:48;;;;;;;27.70;25.10;;;;;;;;;;5093972;28;20455;-89
2021/06/30 00:36:14;;;;;;;26.80;24.40;;;;;;;;;;5094158;28;20471;-90
2021/06/30 00:38:40;;;;;;;28.17;25.58;;;;;;;;;;5093782;28;20410;-91
2021/06/30 00:41:09;;;;;;;28.48;25.88;;;;;;;;;;5093802;28;20399;-90
2021/06/30 00:43:35;;;;;;;29.42;26.73;;;;;;;;;;5093799;28;20386;-89
2021/06/30 00:46:01;;;;;;;30.13;27.37;;;;;;;;;;5094431;28;20412;-91
2021/06/30 00:48:27;;;;;;;30.40;27.73;;;;;;;;;;5093489;28;20452;-89
2021/06/30 00:50:54;;;;;;;30.48;27.85;;;;;;;;;;5093629;28;20463;-89
2021/06/30 00:53:20;;;;;;;31.92;29.13;;;;;;;;;;5093440;28;20372;-90
2021/06/30 00:55:50;;;;;;;33.13;30.13;;;;;;;;;;5093225;28;20365;-89
2021/06/30 00:58:16;;;;;;;31.85;29.05;;;;;;;;;;5094604;28;20428;-90
2021/06/30 01:00:42;;;;;;;31.08;28.30;;;;;;;;;;5093329;28;20393;-90
2021/06/30 01:03:09;;;;;;;29.00;26.60;;;;;;;;;;5093649;28;20379;-91
2021/06/30 01:05:35;;;;;;;28.75;26.30;;;;;;;;;;5093698;28;20376;-91
2021/06/30 01:08:03;;;;;;;31.50;28.40;;;;;;;;;;5093759;28;20372;-91
2021/06/30 01:10:29;;;;;;;30.90;28.30;;;;;;;;;;5093811;28;20373;-90
2021/06/30 01:12:58;;;;;;;31.30;28.40;;;;;;;;;;5093720;28;20383;-89
2021/06/30 01:15:24;;;;;;;30.63;27.90;;;;;;;;;;5094909;28;20857;-90
2021/06/30 01:17:53;;;;;;;32.40;29.50;;;;;;;;;;5094246;28;20388;-88
2021/06/30 01:20:19;;;;;;;32.28;29.38;;;;;;;;;;5095345;28;20376;-90
2021/06/30 01:22:45;;;;;;;34.20;31.05;;;;;;;;;;5096347;28;20846;-90
2021/06/30 01:25:11;;;;;;;34.63;31.35;;;;;;;;;;5094265;28;20375;-90
2021/06/30 01:27:37;;;;;;;34.08;31.02;;;;;;;;;;5094028;28;20381;-90
2021/06/30 01:30:05;;;;;;;34.17;31.13;;;;;;;;;;5093784;28;20420;-90
2021/06/30 01:32:31;;;;;;;32.93;29.93;;;;;;;;;;5094043;28;20875;-88
2021/06/30 01:34:57;;;;;;;34.05;30.95;;;;;;;;;;5094954;28;20372;-88
2021/06/30 01:37:23;;;;;;;32.75;29.83;;;;;;;;;;5093572;28;20463;-89
2021/06/30 01:39:49;;;;;;;32.55;29.75;;;;;;;;;;5093380;28;20491;-88
2021/06/30 01:42:15;;;;;;;33.97;30.95;;;;;;;;;;5093246;28;20424;-88
2021/06/30 01:44:41;;;;;;;33.83;30.67;;;;;;;;;;5092914;28;20749;-87
2021/06/30 01:47:07;;;;;;;35.05;31.75;;;;;;;;;;5094358;28;20360;-89
2021/06/30 01:49:33;;;;;;;34.83;31.60;;;;;;;;;;5092512;28;20376;-88
2021/06/30 01:51:59;;;;;;;34.35;31.13;;;;;;;;;;5092575;28;20813;-88
2021/06/30 01:54:25;;;;;;;35.92;32.63;;;;;;;;;;5092138;28;20412;-89
2021/06/30 01:56:51;;;;;;;35.92;32.65;;;;;;;;;;5092465;28;20373;-88
2021/06/30 01:59:17;;;;;;;37.67;34.30;;;;;;;;;;5093454;28;20399;-89
2021/06/30 02:01:44;;;;;;;35.47;32.22;;;;;;;;;;5092048;28;20437;-87
2021/06/30 02:04:10;;;;;;;36.15;32.58;;;;;;;;;;5093205;28;20364;-90
2021/06/30 02:06:41;;;;;;;37.40;33.95;;;;;;;;;;5091932;28;20387;-89
2021/06/30 02:09:08;;;;;;;33.42;30.33;;;;;;;;;;5092161;28;20364;-89
2021/06/30 02:11:34;;;;;;;35.65;32.42;;;;;;;;;;5093106;28;20372;-88
2021/06/30 02:14:00;;;;;;;30.40;27.80;;;;;;;;;;5091847;28;20411;-89
2021/06/30 02:16:26;;;;;;;31.95;29.02;;;;;;;;;;5092279;28;20767;-88
2021/06/30 02:18:52;;;;;;;34.08;30.98;;;;;;;;;;5093106;28;20404;-89
2021/06/30 02:21:19;;;;;;;32.17;29.30;;;;;;;;;;5091989;28;20372;-89
2021/06/30 02:23:45;;;;;;;31.65;28.88;;;;;;;;;;5091826;28;20369;-89
2021/06/30 02:26:11;;;;;;;31.52;28.80;;;;;;;;;;5091963;28;20718;-89
2021/06/30 02:28:37;;;;;;;36.53;33.22;;;;;;;;;;5091739;28;20373;-91
2021/06/30 02:31:03;;;;;;;35.13;31.83;;;;;;;;;;5093286;28;20404;-89
2021/06/30 02:33:29;;;;;;;35.43;32.13;;;;;;;;;;5094056;28;20884;-88
2021/06/30 02:35:56;;;;;;;31.23;28.23;;;;;;;;;;5092597;28;20376;-89
2021/06/30 02:38:26;;;;;;;33.50;30.30;;;;;;;;;;5091334;28;20797;-87
2021/06/30 02:40:53;;;;;;;31.77;28.88;;;;;;;;;;5094645;28;20391;-89
2021/06/30 02:43:22;;;;;;;32.78;29.77;;;;;;;;;;5090487;28;20418;-87
2021/06/30 02:45:53;;;;;;;33.30;30.10;;;;;;;;;;5078427;28;20378;-89
2021/06/30 02:48:28;;;;;;;35.00;31.60;;;;;;;;;;5072109;28;20397;-86
2021/06/30 02:50:54;;;;;;;35.57;32.17;;;;;;;;;;5072109;28;20418;-89
2021/06/30 02:53:29;;;;;;;36.22;32.63;;;;;;;;;;5071566;28;20461;-90
2021/06/30 02:55:55;;;;;;;36.55;32.95;;;;;;;;;;5071860;28;20378;-88
2021/06/30 02:58:21;;;;;;;38.50;34.90;;;;;;;;;;5071772;28;20469;-87
2021/06/30 03:00:50;;;;;;;38.78;35.20;;;;;;;;;;5071282;28;20408;-87
2021/06/30 03:03:16;;;;;;;41.05;37.05;;;;;;;;;;5071567;28;20720;-88
2021/06/30 03:05:45;;;;;;;41.53;37.67;;;;;;;;;;5073092;28;20401;-88
2021/06/30 03:08:14;;;;;;;44.03;39.85;;;;;;;;;;5071738;28;20405;-89
2021/06/30 03:10:44;;;;;;;43.53;39.40;;;;;;;;;;5071663;28;20397;-88
2021/06/30 03:13:10;;;;;;;44.50;40.17;;;;;;;;;;5072022;28;20366;-89
2021/06/30 03:15:42;;;;;;;42.17;38.33;;;;;;;;;;5071510;28;20372;-89
2021/06/30 03:18:10;;;;;;;43.38;39.28;;;;;;;;;;5072548;28;20434;-87
2021/06/30 03:20:36;;;;;;;44.53;40.03;;;;;;;;;;5071784;28;20382;-89
2021/06/30 03:23:02;;;;;;;41.97;38.17;;;;;;;;;;5072013;28;20400;-89
2021/06/30 03:25:28;;;;;;;41.73;37.80;;;;;;;;;;5072057;28;20401;-91
2021/06/30 03:27:54;;;;;;;40.63;36.83;;;;;;;;;;5071550;28;20976;-86
2021/06/30 03:30:20;;;;;;;38.28;34.70;;;;;;;;;;5070841;28;20428;-88
2021/06/30 03:32:46;;;;;;;38.80;35.30;;;;;;;;;;5071362;28;20378;-89
2021/06/30 03:35:12;;;;;;;39.38;35.78;;;;;;;;;;5070578;28;20370;-87
2021/06/30 03:37:41;;;;;;;37.60;33.90;;;;;;;;;;5070264;28;20382;-88
2021/06/30 03:40:07;;;;;;;38.83;35.22;;;;;;;;;;5070074;28;20430;-86
2021/06/30 03:42:33;;;;;;;37.22;33.80;;;;;;;;;;5070353;28;20424;-87
2021/06/30 03:44:59;;;;;;;37.22;33.83;;;;;;;;;;5069368;28;20778;-88
2021/06/30 03:50:15;;;;;;;38.78;34.90;;;;;;;;;;5068765;28;20374;-89
2021/06/30 03:52:41;;;;;;;34.67;31.45;;;;;;;;;;5073291;28;20996;-88
2021/06/30 03:55:07;;;;;;;34.17;31.08;;;;;;;;;;5073827;28;20370;-89
2021/06/30 03:57:54;;;;;;;36.70;33.20;;;;;;;;;;5072501;28;20465;-88
2021/06/30 04:00:20;;;;;;;32.63;29.60;;;;;;;;;;5069587;28;20366;-89
2021/06/30 04:02:46;;;;;;;36.10;32.80;;;;;;;;;;5069818;28;20375;-88
2021/06/30 04:05:12;;;;;;;32.42;29.52;;;;;;;;;;5070452;28;20465;-89
2021/06/30 04:07:38;;;;;;;32.25;29.35;;;;;;;;;;5070383;28;20382;-88
2021/06/30 04:16:23;;;;;;;33.88;30.88;;;;;;;;;;4985824;28;20388;-88
2021/06/30 04:18:57;;;;;;;33.47;30.27;;;;;;;;;;5071573;28;20406;-89
2021/06/30 04:21:23;;;;;;;34.35;30.88;;;;;;;;;;5072003;28;20378;-88
2021/06/30 04:23:50;;;;;;;33.50;30.30;;;;;;;;;;5073059;28;20807;-87
2021/06/30 04:26:16;;;;;;;32.03;29.03;;;;;;;;;;5071777;28;20872;-90
2021/06/30 04:28:42;;;;;;;31.52;28.52;;;;;;;;;;5072297;28;20477;-88
2021/06/30 04:31:08;;;;;;;31.98;29.02;;;;;;;;;;5070813;28;20875;-89
2021/06/30 04:33:34;;;;;;;35.97;32.58;;;;;;;;;;5071103;28;20382;-89
2021/06/30 04:36:00;;;;;;;33.17;30.08;;;;;;;;;;5070555;28;20362;-89
2021/06/30 04:38:27;;;;;;;33.63;30.63;;;;;;;;;;5070612;28;20450;-88
2021/06/30 04:40:54;;;;;;;34.97;31.35;;;;;;;;;;5070112;28;20461;-89
2021/06/30 04:43:20;;;;;;;33.42;30.38;;;;;;;;;;5070326;28;20860;-91
2021/06/30 04:45:55;;;;;;;31.07;28.27;;;;;;;;;;5070180;28;20370;-89
2021/06/30 04:48:24;;;;;;;32.03;29.13;;;;;;;;;;5069425;28;20410;-87
2021/06/30 04:51:00;;;;;;;32.75;29.65;;;;;;;;;;5071360;28;20422;-88
2021/06/30 04:53:49;;;;;;;32.07;29.30;;;;;;;;;;5070911;28;20378;-87
2021/06/30 04:56:27;;;;;;;29.83;27.15;;;;;;;;;;5069911;28;20385;-88
2021/06/30 04:58:54;;;;;;;30.70;27.88;;;;;;;;;;5071580;28;20489;-88
2021/06/30 05:01:20;;;;;;;31.35;28.63;;;;;;;;;;5071203;28;20816;-89
2021/06/30 05:03:46;;;;;;;31.98;28.98;;;;;;;;;;5070161;28;20465;-86
2021/06/30 05:06:12;;;;;;;29.88;27.27;;;;;;;;;;5074496;28;20845;-87
2021/06/30 05:08:38;;;;;;;31.20;28.58;;;;;;;;;;5073216;28;20362;-91
2021/06/30 05:11:04;;;;;;;30.35;27.58;;;;;;;;;;5075456;28;20363;-90
2021/06/30 05:13:31;;;;;;;29.02;26.50;;;;;;;;;;5074358;28;20758;-86
2021/06/30 05:15:57;;;;;;;29.50;26.80;;;;;;;;;;5074601;28;20427;-88
2021/06/30 05:18:23;;;;;;;28.70;26.23;;;;;;;;;;5074158;28;21065;-88
2021/06/30 05:20:49;;;;;;;31.73;28.93;;;;;;;;;;5074949;28;20378;-88
2021/06/30 05:23:16;;;;;;;32.22;29.23;;;;;;;;;;5072679;28;20721;-88
2021/06/30 05:25:42;;;;;;;31.77;28.65;;;;;;;;;;5074012;28;20381;-87
2021/06/30 05:28:08;;;;;;;31.43;28.53;;;;;;;;;;5072934;28;20871;-89
2021/06/30 05:30:34;;;;;;;29.42;26.63;;;;;;;;;;5073960;28;20392;-86
2021/06/30 05:33:00;;;;;;;28.60;26.10;;;;;;;;;;5074883;28;20814;-89
2021/06/30 05:35:26;;;;;;;32.45;29.15;;;;;;;;;;5075169;28;20720;-89
2021/06/30 05:37:52;;;;;;;29.90;27.20;;;;;;;;;;5073100;28;20362;-91
2021/06/30 05:40:18;;;;;;;30.15;27.40;;;;;;;;;;5073486;28;20386;-88
2021/06/30 05:42:44;;;;;;;30.35;27.75;;;;;;;;;;5057873;28;20384;-89
2021/06/30 05:45:15;;;;;;;31.05;28.25;;;;;;;;;;5056544;28;20410;-87
2021/06/30 05:47:42;;;;;;;31.42;28.63;;;;;;;;;;5056351;28;20381;-89
2021/06/30 05:50:09;;;;;;;29.25;26.60;;;;;;;;;;5055571;28;20456;-90
2021/06/30 05:52:35;;;;;;;32.08;29.13;;;;;;;;;;5055980;28;20374;-90
2021/06/30 05:55:01;;;;;;;31.85;28.90;;;;;;;;;;5055900;28;20386;-90
2021/06/30 05:57:27;;;;;;;31.35;28.48;;;;;;;;;;5055465;28;20378;-87
2021/06/30 05:59:53;;;;;;;29.53;26.90;;;;;;;;;;5055387;28;20398;-90
2021/06/30 06:02:19;;;;;;;29.45;26.85;;;;;;;;;;5056286;28;20409;-89
2021/06/30 06:04:45;;;;;;;28.67;26.17;;;;;;;;;;5073312;28;20774;-86
2021/06/30 06:07:11;;;;;;;28.13;25.65;;;;;;;;;;5055723;28;20392;-88
2021/06/30 06:09:37;;;;;;;25.60;23.48;;;;;;;;;;5073824;28;20381;-87
2021/06/30 06:12:03;;;;;;;24.88;22.58;;;;;;;;;;5056165;28;20378;-89
2021/06/30 06:14:29;;;;;;;25.45;23.23;;;;;;;;;;5056747;28;20381;-87
2021/06/30 06:16:56;;;;;;;26.40;24.15;;;;;;;;;;5056069;28;20374;-87
2021/06/30 06:19:23;;;;;;;25.77;23.67;;;;;;;;;;5055992;28;20441;-90
2021/06/30 06:21:49;;;;;;;25.08;22.88;;;;;;;;;;5073029;28;20740;-89
2021/06/30 06:24:15;;;;;;;27.38;24.77;;;;;;;;;;5072790;28;20367;-87
2021/06/30 06:26:49;;;;;;;26.15;23.95;;;;;;;;;;5073501;28;20382;-89
2021/06/30 06:29:15;;;;;;;27.23;24.90;;;;;;;;;;5073427;28;20385;-88
2021/06/30 06:31:41;;;;;;;26.73;24.43;;;;;;;;;;5073067;28;20397;-89
2021/06/30 06:34:07;;;;;;;27.53;25.23;;;;;;;;;;5071862;28;20379;-90
2021/06/30 06:36:35;;;;;;;28.08;25.58;;;;;;;;;;5071568;28;20516;-89
2021/06/30 06:39:04;;;;;;;27.23;24.83;;;;;;;;;;5071536;28;20759;-88
2021/06/30 06:41:30;;;;;;;28.43;26.03;;;;;;;;;;5071222;28;20385;-90
2021/06/30 06:43:56;;;;;;;29.23;26.60;;;;;;;;;;5083733;28;20947;-90
2021/06/30 06:46:22;;;;;;;27.80;25.37;;;;;;;;;;5092471;28;20384;-89
2021/06/30 06:48:48;;;;;;;25.13;22.92;;;;;;;;;;5083919;28;20432;-88
2021/06/30 06:51:14;;;;;;;27.05;24.55;;;;;;;;;;5075037;28;20765;-90
2021/06/30 06:53:40;;;;;;;27.30;24.90;;;;;;;;;;5078073;28;20453;-89
2021/06/30 06:56:10;;;;;;;26.67;24.17;;;;;;;;;;5081087;28;20866;-90
2021/06/30 06:58:36;;;;;;;27.33;24.80;;;;;;;;;;5079561;28;20406;-90
2021/06/30 07:01:02;;;;;;;25.93;23.43;;;;;;;;;;5081376;28;20900;-88
2021/06/30 07:03:28;;;;;;;25.63;23.30;;;;;;;;;;5081282;28;20449;-87
2021/06/30 07:05:55;;;;;;;25.10;22.80;;;;;;;;;;5081696;28;20449;-88
2021/06/30 07:08:21;;;;;;;28.35;25.73;;;;;;;;;;5082366;28;20370;-88
2021/06/30 07:10:47;;;;;;;31.50;28.70;;;;;;;;;;5079220;28;20955;-86
2021/06/30 07:13:13;;;;;;;32.55;29.63;;;;;;;;;;5071539;28;20917;-88
2021/06/30 07:15:41;;;;;;;31.83;29.02;;;;;;;;;;5080134;28;20382;-87
2021/06/30 07:18:11;;;;;;;32.73;29.93;;;;;;;;;;5077753;28;20450;-86
2021/06/30 07:20:37;;;;;;;34.80;31.70;;;;;;;;;;5080898;28;20990;-86
2021/06/30 07:23:03;;;;;;;35.22;32.13;;;;;;;;;;5081399;28;20506;-91
2021/06/30 07:25:29;;;;;;;34.72;31.52;;;;;;;;;;5080605;28;20387;-85
2021/06/30 07:27:55;;;;;;;34.90;31.73;;;;;;;;;;5079664;28;20728;-85
2021/06/30 07:30:21;;;;;;;36.38;33.08;;;;;;;;;;5078921;28;20430;-87
2021/06/30 07:32:49;;;;;;;34.58;31.58;;;;;;;;;;5081954;28;20863;-91
2021/06/30 07:35:15;;;;;;;32.90;30.05;;;;;;;;;;5081608;28;20386;-90
2021/06/30 07:37:41;;;;;;;33.60;30.60;;;;;;;;;;5081798;28;20443;-90
2021/06/30 07:40:16;;;;;;;35.97;32.77;;;;;;;;;;5079237;28;20469;-87
2021/06/30 07:42:42;;;;;;;35.20;32.10;;;;;;;;;;5082004;28;21335;-87
2021/06/30 07:45:08;;;;;;;33.05;30.10;;;;;;;;;;5074181;28;20895;-86
2021/06/30 07:47:35;;;;;;;32.40;29.52;;;;;;;;;;5079593;28;20374;-89
2021/06/30 07:50:01;;;;;;;30.80;28.10;;;;;;;;;;5084770;28;20418;-88
2021/06/30 07:52:27;;;;;;;30.52;27.85;;;;;;;;;;5081735;28;20386;-88
2021/06/30 07:54:54;;;;;;;29.63;27.13;;;;;;;;;;5082916;28;20384;-89
2021/06/30 07:57:20;;;;;;;28.67;26.17;;;;;;;;;;5080866;28;20377;-88
2021/06/30 07:59:46;;;;;;;27.48;25.00;;;;;;;;;;5080815;28;20411;-90
2021/06/30 08:02:12;;;;;;;28.77;26.35;;;;;;;;;;5077636;28;20739;-87
2021/06/30 08:04:38;;;;;;;28.13;25.65;;;;;;;;;;5079423;28;20393;-90
2021/06/30 08:07:05;;;;;;;25.85;23.65;;;;;;;;;;5079529;28;20374;-88
2021/06/30 08:09:33;;;;;;;26.27;24.17;;;;;;;;;;5074261;28;20374;-86
2021/06/30 08:12:05;;;;;;;27.92;25.52;;;;;;;;;;5071634;28;20374;-87
2021/06/30 08:14:35;;;;;;;27.65;25.35;;;;;;;;;;5075340;28;20800;-88
2021/06/30 08:17:03;;;;;;;28.10;25.50;;;;;;;;;;5071563;28;20912;-90
2021/06/30 08:19:32;;;;;;;26.52;24.23;;;;;;;;;;5077684;28;20744;-90
2021/06/30 08:22:02;;;;;;;25.00;22.98;;;;;;;;;;5077447;28;20513;-89
2021/06/30 08:24:28;;;;;;;27.08;24.52;;;;;;;;;;5076356;28;20900;-89
2021/06/30 08:26:56;;;;;;;25.45;23.25;;;;;;;;;;5081800;28;20423;-85
2021/06/30 08:29:25;;;;;;;26.08;23.90;;;;;;;;;;5078028;28;20423;-87
2021/06/30 08:31:51;;;;;;;26.48;24.13;;;;;;;;;;5075972;28;20469;-89
2021/06/30 08:34:17;;;;;;;23.95;21.95;;;;;;;;;;5076794;28;20393;-87
2021/06/30 08:36:43;;;;;;;25.55;23.35;;;;;;;;;;5077464;28;21782;-87
2021/06/30 08:39:11;;;;;;;25.98;23.67;;;;;;;;;;5079260;28;20439;-88
2021/06/30 08:41:40;;;;;;;27.05;24.65;;;;;;;;;;5081571;28;20816;-89
2021/06/30 08:44:06;;;;;;;26.67;24.17;;;;;;;;;;5083756;28;20386;-88
2021/06/30 08:46:33;;;;;;;27.20;24.90;;;;;;;;;;5081230;28;20382;-86
2021/06/30 08:49:00;;;;;;;26.23;24.03;;;;;;;;;;5081639;28;20384;-88
2021/06/30 08:51:31;;;;;;;25.20;23.20;;;;;;;;;;5076779;28;20372;-88
2021/06/30 08:53:59;;;;;;;23.33;21.42;;;;;;;;;;5079308;28;20380;-89
2021/06/30 08:56:31;;;;;;;23.73;21.63;;;;;;;;;;5081846;28;20368;-89
2021/06/30 08:59:03;;;;;;;26.00;23.80;;;;;;;;;;5085442;28;20400;-88
2021/06/30 09:01:30;;;;;;;26.52;24.33;;;;;;;;;;5078673;28;20420;-89
2021/06/30 09:03:57;;;;;;;26.35;24.05;;;;;;;;;;5091148;28;20369;-90
2021/06/30 09:06:24;;;;;;;26.52;24.17;;;;;;;;;;5083582;28;20380;-88
2021/06/30 09:08:52;;;;;;;26.15;23.90;;;;;;;;;;5084477;28;20941;-88
2021/06/30 09:11:26;;;;;;;25.67;23.40;;;;;;;;;;5084591;28;20388;-88
2021/06/30 09:14:08;;;;;;;27.63;25.23;;;;;;;;;;5080760;28;20380;-89
2021/06/30 09:17:16;;;;;;;25.95;23.83;;;;;;;;;;5080698;28;20396;-89
2021/06/30 09:19:45;;;;;;;27.10;24.80;;;;;;;;;;5082456;28;20408;-89
2021/06/30 09:22:11;;;;;;;25.92;23.73;;;;;;;;;;5082477;28;20406;-88
2021/06/30 09:24:38;;;;;;;26.43;24.13;;;;;;;;;;5084127;28;20411;-90
2021/06/30 09:27:04;;;;;;;28.58;26.08;;;;;;;;;;5081725;28;20473;-89
2021/06/30 09:29:35;;;;;;;27.52;25.25;;;;;;;;;;5084784;28;20386;-89
2021/06/30 09:32:07;;;;;;;26.45;24.25;;;;;;;;;;5084337;28;20376;-88
2021/06/30 09:34:34;;;;;;;27.48;25.17;;;;;;;;;;5080207;28;20424;-88
2021/06/30 09:37:01;;;;;;;28.33;25.92;;;;;;;;;;5088327;28;20382;-86
2021/06/30 09:39:35;;;;;;;27.55;25.15;;;;;;;;;;5080383;28;20410;-88
2021/06/30 09:42:09;;;;;;;23.20;21.20;;;;;;;;;;5086036;28;20421;-87
2021/06/30 09:44:36;;;;;;;26.60;24.30;;;;;;;;;;5077534;28;20788;-87
2021/06/30 09:47:06;;;;;;;28.05;25.67;;;;;;;;;;5083493;28;20368;-88
2021/06/30 09:49:35;;;;;;;28.08;25.55;;;;;;;;;;5075484;28;20395;-89
2021/06/30 09:52:22;;;;;;;27.15;24.75;;;;;;;;;;5081261;28;20403;-88
2021/06/30 09:54:49;;;;;;;27.20;24.80;;;;;;;;;;5090658;28;20367;-87
2021/06/30 09:57:16;;;;;;;27.30;25.02;;;;;;;;;;5086525;28;20380;-88
2021/06/30 09:59:45;;;;;;;27.35;25.05;;;;;;;;;;5083871;28;20487;-87
2021/06/30 10:02:12;;;;;;;27.52;25.15;;;;;;;;;;5087271;28;20375;-87
2021/06/30 10:04:42;;;;;;;26.15;23.85;;;;;;;;;;5085509;28;20412;-85
2021/06/30 10:07:13;;;;;;;26.13;23.80;;;;;;;;;;5083820;28;20377;-87
2021/06/30 10:09:40;;;;;;;27.07;24.73;;;;;;;;;;5082490;28;20469;-87
2021/06/30 10:12:08;;;;;;;26.73;24.50;;;;;;;;;;5085088;28;20381;-86
2021/06/30 10:14:34;;;;;;;25.95;23.75;;;;;;;;;;5083349;28;20448;-88
2021/06/30 10:17:01;;;;;;;26.33;24.13;;;;;;;;;;5088327;28;20511;-88
2021/06/30 10:19:27;;;;;;;26.83;24.35;;;;;;;;;;5084833;28;20489;-89
2021/06/30 10:21:54;;;;;;;24.13;22.08;;;;;;;;;;5088343;28;20389;-87
2021/06/30 10:24:20;;;;;;;23.63;21.60;;;;;;;;;;5088687;28;20420;-89
2021/06/30 10:26:47;;;;;;;24.50;22.30;;;;;;;;;;5087031;28;20376;-88
2021/06/30 10:29:13;;;;;;;22.92;20.92;;;;;;;;;;5087134;28;20395;-88
2021/06/30 10:31:41;;;;;;;22.45;20.55;;;;;;;;;;5089316;28;20540;-86
2021/06/30 10:34:11;;;;;;;22.13;20.33;;;;;;;;;;5086183;28;20388;-88
2021/06/30 10:36:43;;;;;;;23.50;21.50;;;;;;;;;;5088574;28;20392;-90
2021/06/30 10:39:13;;;;;;;21.83;19.92;;;;;;;;;;5085221;28;20426;-88
2021/06/30 10:41:53;;;;;;;20.63;18.83;;;;;;;;;;5086802;28;20462;-86
2021/06/30 10:44:24;;;;;;;18.38;16.95;;;;;;;;;;5078847;28;20388;-89
2021/06/30 10:46:50;;;;;;;19.50;17.80;;;;;;;;;;5101716;28;20419;-88
2021/06/30 10:49:17;;;;;;;17.73;16.33;;;;;;;;;;5084862;28;20389;-89
2021/06/30 10:51:45;;;;;;;17.73;16.02;;;;;;;;;;5082257;28;20382;-89
2021/06/30 10:54:30;;;;;;;18.27;16.60;;;;;;;;;;5081538;28;20430;-89
2021/06/30 10:57:14;;;;;;;16.98;15.48;;;;;;;;;;5079619;28;20914;-89
2021/06/30 11:00:03;;;;;;;15.55;14.35;;;;;;;;;;5080769;28;20403;-88
2021/06/30 11:02:45;;;;;;;16.40;15.05;;;;;;;;;;5106434;28;20438;-88
2021/06/30 11:05:27;;;;;;;16.55;15.15;;;;;;;;;;5076717;28;20386;-88
2021/06/30 11:07:52;;;;;;;16.38;15.00;;;21.50;99.90;;;;;;5078906;28;20386;-87
2021/06/30 11:10:21;;;;;;;15.80;14.48;;;21.60;99.90;;;;;;5093379;28;20809;-87
2021/06/30 11:12:56;;;;;;;14.75;13.60;;;21.50;99.90;;;;;;5094662;28;20432;-86
2021/06/30 11:15:40;;;;;;;14.98;13.75;;;21.30;99.90;;;;;;5095251;28;20443;-88
2021/06/30 11:18:12;;;;;;;16.35;14.85;;;21.20;99.90;;;;;;5095526;28;20384;-88
2021/06/30 11:20:48;;;;;;;16.07;14.77;;;21.30;99.90;;;;;;5085879;28;20393;-88
2021/06/30 11:23:43;;;;;;;15.23;13.93;;;21.30;99.90;;;;;;5073801;28;20382;-89
2021/06/30 11:26:39;;;;;;;15.23;13.93;;;21.40;99.90;;;;;;5076458;28;20481;-89
2021/06/30 11:29:44;;;;;;;14.23;13.13;;;21.40;99.90;;;;;;5077178;28;20430;-89
2021/06/30 11:32:36;;;;;;;16.43;15.13;;;21.40;99.90;;;;;;5075937;28;20382;-86
2021/06/30 11:35:09;;;;;;;15.65;14.27;;;21.30;99.90;;;;;;5063198;28;21053;-87
2021/06/30 11:37:36;;;;;;;16.30;15.00;;;21.10;99.90;;;;;;5084702;28;20410;-88
2021/06/30 11:40:13;;;;;;;18.17;16.67;;;20.80;99.90;;;;;;5092453;28;20404;-88
2021/06/30 11:42:46;;;;;;;17.05;15.68;;;20.60;99.90;;;;;;5082527;28;20425;-88
2021/06/30 11:45:26;;;;;;;17.17;15.77;;;20.40;99.90;;;;;;5082150;28;20377;-87
2021/06/30 11:48:09;;;;;;;17.08;15.77;;;20.40;99.90;;;;;;5080623;28;20382;-90
2021/06/30 11:50:50;;;;;;;18.55;16.95;;;20.30;99.90;;;;;;5081062;28;20390;-89
2021/06/30 11:53:30;;;;;;;14.80;13.60;;;20.30;99.90;;;;;;5080440;28;20388;-87
2021/06/30 11:55:55;;;;;;;14.57;13.38;;;20.10;99.90;;;;;;5083127;28;20715;-86
2021/06/30 11:58:21;;;;;;;13.17;12.17;;;20.00;99.90;;;;;;5091831;28;20433;-91
2021/06/30 12:00:47;;;;;;;11.85;10.85;;;19.90;99.90;;;;;;5090836;28;20368;-88
2021/06/30 12:03:12;;;;;;;11.83;10.83;;;19.80;99.90;;;;;;5091080;28;20457;-88
2021/06/30 12:05:40;;;;;;;11.77;10.88;;;19.80;99.90;;;;;;5082119;28;20416;-89
2021/06/30 12:08:08;;;;;;;11.57;10.63;;;19.80;99.90;;;;;;5078760;28;20374;-92
2021/06/30 12:10:37;;;;;;;11.30;10.40;;;19.80;99.90;;;;;;5072837;28;20908;-91
2021/06/30 12:13:05;;;;;;;11.57;10.68;;;19.70;99.90;;;;;;5077030;28;20390;-88
2021/06/30 12:15:43;;;;;;;12.30;11.30;;;19.70;99.90;;;;;;5088120;28;20445;-89
2021/06/30 12:18:10;;;;;;;12.40;11.40;;;19.60;99.90;;;;;;5083979;28;20846;-92
2021/06/30 12:20:36;;;;;;;14.23;12.93;;;19.60;99.90;;;;;;5084406;28;20378;-89
2021/06/30 12:23:03;;;;;;;13.73;12.40;;;19.60;99.90;;;;;;5085131;28;20397;-88
2021/06/30 12:25:31;;;;;;;13.15;12.05;;;19.40;99.90;;;;;;5082886;28;20382;-89
2021/06/30 12:28:05;;;;;;;14.00;12.70;;;19.40;99.90;;;;;;5084271;28;20384;-87
2021/06/30 12:30:46;;;;;;;14.52;13.10;;;19.40;99.90;;;;;;5079281;28;20398;-89
2021/06/30 12:33:17;;;;;;;14.07;12.77;;;19.40;99.90;;;;;;5079867;28;20388;-88
2021/06/30 12:35:48;;;;;;;14.85;13.45;;;19.40;99.90;;;;;;5083932;28;20810;-88
2021/06/30 12:38:31;;;;;;;14.75;13.45;;;19.40;99.90;;;;;;5081879;28;20904;-89
2021/06/30 12:41:10;;;;;;;14.50;13.27;;;19.40;99.90;;;;;;5083622;28;20396;-87
2021/06/30 12:43:39;;;;;;;16.08;14.77;;;19.20;99.90;;;;;;5084317;28;20461;-85
2021/06/30 12:46:21;;;;;;;18.38;16.67;;;19.10;99.90;;;;;;5085277;28;20466;-90
2021/06/30 12:48:46;;;;;;;21.05;18.77;;;19.10;99.90;;;;;;5083627;28;20388;-89
2021/06/30 12:51:15;;;;;;;21.83;19.77;;;18.80;99.90;;;;;;5083868;28;20392;-86
2021/06/30 12:54:03;;;;;;;22.95;20.65;;;18.80;99.90;;;;;;5084819;28;20770;-88
2021/06/30 12:56:34;;;;;;;25.75;23.13;;;18.80;99.90;;;;;;5082669;28;20798;-91
2021/06/30 12:59:14;;;;;;;26.30;21.15;;;18.70;99.90;;;;;;5086147;28;20761;-88
2021/06/30 13:01:43;;;;;;;26.10;23.33;;;18.70;99.90;;;;;;5080733;28;20465;-88
2021/06/30 13:04:09;;;;;;;28.33;24.85;;;18.50;99.90;;;;;;5082858;28;20402;-89
2021/06/30 13:06:47;;;;;;;32.05;26.92;;;18.50;99.90;;;;;;5083122;28;20376;-86
2021/06/30 13:09:15;;;;;;;31.03;27.43;;;18.40;99.90;;;;;;5083772;28;20384;-86
2021/06/30 13:11:54;;;;;;;39.50;29.95;;;18.40;99.90;;;;;;5083557;28;20386;-90
2021/06/30 13:14:22;;;;;;;34.38;29.08;;;18.30;99.90;;;;;;5083628;28;20390;-86
2021/06/30 13:16:57;;;;;;;35.58;31.42;;;18.30;99.90;;;;;;5081116;28;20373;-88
2021/06/30 13:19:45;;;;;;;36.42;31.17;;;18.30;99.90;;;;;;5082379;28;20417;-87
2021/06/30 13:22:25;;;;;;;38.20;31.45;;;18.20;99.90;;;;;;5079326;28;20374;-87
2021/06/30 13:24:53;;;;;;;38.38;31.08;;;18.20;99.90;;;;;;5071558;28;20469;-87
2021/06/30 13:27:42;;;;;;;34.42;30.27;;;18.10;99.90;;;;;;5072668;28;20371;-86
2021/06/30 13:35:47;;;;;;;39.22;32.58;;;18.20;99.90;;;;;;5073429;28;20404;-87
2021/06/30 13:38:20;;;;;;;40.80;34.17;;;18.30;99.90;;;;;;5073936;28;20736;-87
2021/06/30 13:40:55;;;;;;;44.70;34.60;;;18.40;99.90;;;;;;5072826;28;20957;-89
2021/06/30 13:43:21;;;;;;;41.77;33.83;;;18.30;99.90;;;;;;5073954;28;20371;-89
2021/06/30 13:45:59;;;;;;;42.03;33.53;;;18.50;99.90;;;;;;5072016;28;20743;-88
2021/06/30 13:48:26;;;;;;;42.42;34.00;;;18.40;99.90;;;;;;5075879;28;20381;-89
2021/06/30 13:51:01;;;;;;;38.75;30.75;;;18.50;99.90;;;;;;5063927;28;20412;-85
2021/06/30 13:53:35;;;;;;;38.42;30.80;;;18.40;99.90;;;;;;5048204;28;20386;-87
2021/06/30 13:56:04;;;;;;;39.70;30.23;;;18.40;99.90;;;;;;5081674;28;20479;-86
2021/06/30 13:58:30;;;;;;;43.78;30.33;;;18.50;99.90;;;;;;5081875;28;20395;-86
2021/06/30 14:00:57;;;;;;;38.15;30.27;;;18.50;99.90;;;;;;5081201;28;20485;-86
2021/06/30 14:03:23;;;;;;;34.80;28.63;;;18.50;99.90;;;;;;5079919;28;20391;-87
2021/06/30 14:05:49;;;;;;;37.75;29.67;;;18.60;99.90;;;;;;5082221;28;20376;-88
2021/06/30 14:08:18;;;;;;;35.22;27.13;;;18.70;99.90;;;;;;5079433;28;20824;-86
2021/06/30 14:10:51;;;;;;;32.72;25.83;;;18.80;99.90;;;;;;5079346;28;20485;-86
2021/06/30 14:13:17;;;;;;;26.23;22.55;;;18.70;99.90;;;;;;5087458;28;20414;-84
2021/06/30 14:15:43;;;;;;;22.45;20.05;;;18.70;99.90;;;;;;5075574;28;20518;-85
2021/06/30 14:18:13;;;;;;;20.77;18.03;;;18.60;99.90;;;;;;5072097;28;20382;-88